createdAt,value
2022-07-31T00:00:15.186Z,98505.06
2022-07-31T00:02:41.732Z,98506.63
2022-07-31T00:05:08.439Z,98506.94
2022-07-31T00:07:34.952Z,98498.53
2022-07-31T00:10:01.505Z,98508.13
2022-07-31T00:12:28.017Z,98509.75
2022-07-31T00:14:54.539Z,98500.44
2022-07-31T00:17:21.089Z,98498.78
2022-07-31T00:19:47.604Z,98503.63
2022-07-31T00:22:14.100Z,98497.09
2022-07-31T00:24:40.626Z,98500.22
2022-07-31T00:27:08.015Z,98506.59
2022-07-31T00:29:34.507Z,98502.78
2022-07-31T00:32:01.078Z,98500.53
2022-07-31T00:34:27.662Z,98504.16
2022-07-31T00:36:54.217Z,98496.53
2022-07-31T00:39:20.720Z,98488.50
2022-07-31T00:41:47.407Z,98490.38
2022-07-31T00:44:13.969Z,98487.03
2022-07-31T00:46:41.324Z,98485.09
2022-07-31T00:49:10.171Z,98483.31
2022-07-31T00:51:37.986Z,98479.69
2022-07-31T00:54:04.891Z,98480.47
2022-07-31T00:56:31.387Z,98475.31
2022-07-31T00:58:57.949Z,98478.13
2022-07-31T01:01:24.582Z,98472.91
2022-07-31T01:03:51.182Z,98474.09
2022-07-31T01:06:17.678Z,98470.06
2022-07-31T01:08:44.182Z,98464.22
2022-07-31T01:11:18.093Z,98468.25
2022-07-31T01:14:10.856Z,98462.22
2022-07-31T01:16:40.289Z,98459.47
2022-07-31T01:19:19.280Z,98467.38
2022-07-31T01:22:04.998Z,98459.00
2022-07-31T01:25:00.561Z,98470.34
2022-07-31T01:27:49.603Z,98461.00
2022-07-31T01:30:16.448Z,98467.47
2022-07-31T01:32:44.709Z,98458.75
2022-07-31T01:35:15.177Z,98463.38
2022-07-31T01:37:57.018Z,98457.25
2022-07-31T01:40:27.638Z,98455.25
2022-07-31T01:42:58.471Z,98458.81
2022-07-31T01:45:24.987Z,98467.16
2022-07-31T01:47:52.212Z,98466.41
2022-07-31T01:50:42.343Z,98460.38
2022-07-31T01:53:05.263Z,98465.97
2022-07-31T01:55:31.779Z,98463.59
2022-07-31T01:58:19.102Z,98459.88
2022-07-31T02:00:45.918Z,98458.22
2022-07-31T02:03:12.541Z,98460.66
2022-07-31T02:05:43.560Z,98453.50
2022-07-31T02:08:10.557Z,98464.25
2022-07-31T02:10:37.571Z,98465.44
2022-07-31T02:13:04.265Z,98464.06
2022-07-31T02:15:31.236Z,98458.19
2022-07-31T02:17:58.152Z,98455.25
2022-07-31T02:20:24.905Z,98452.69
2022-07-31T02:22:51.436Z,98449.34
2022-07-31T02:25:17.930Z,98452.47
2022-07-31T02:27:53.980Z,98458.19
2022-07-31T02:30:39.454Z,98450.94
2022-07-31T02:33:07.121Z,98450.59
2022-07-31T02:35:33.704Z,98447.00
2022-07-31T02:38:00.198Z,98443.34
2022-07-31T02:40:26.786Z,98443.72
2022-07-31T02:42:53.319Z,98450.81
2022-07-31T02:45:19.864Z,98450.47
2022-07-31T02:47:46.368Z,98442.22
2022-07-31T02:50:13.904Z,98442.25
2022-07-31T02:52:46.711Z,98433.50
2022-07-31T02:55:13.507Z,98445.06
2022-07-31T02:57:41.337Z,98435.44
2022-07-31T03:00:27.060Z,98439.78
2022-07-31T03:02:54.311Z,98438.59
2022-07-31T03:05:21.326Z,98440.56
2022-07-31T03:07:47.898Z,98433.53
2022-07-31T03:10:14.502Z,98431.06
2022-07-31T03:12:42.305Z,98432.22
2022-07-31T03:15:14.184Z,98427.78
2022-07-31T03:17:41.309Z,98424.63
2022-07-31T03:20:08.806Z,98415.56
2022-07-31T03:22:35.338Z,98424.72
2022-07-31T03:25:02.522Z,98417.00
2022-07-31T03:27:29.014Z,98414.47
2022-07-31T03:29:55.579Z,98406.47
2022-07-31T03:32:22.073Z,98411.88
2022-07-31T03:34:48.592Z,98415.06
2022-07-31T03:37:15.131Z,98399.53
2022-07-31T03:39:41.657Z,98405.75
2022-07-31T03:42:18.535Z,98413.41
2022-07-31T03:44:45.830Z,98401.63
2022-07-31T03:47:12.399Z,98413.16
2022-07-31T03:49:39.035Z,98415.06
2022-07-31T03:52:10.070Z,98422.63
2022-07-31T03:54:38.394Z,98419.97
2022-07-31T03:57:04.910Z,98429.13
2022-07-31T03:59:32.362Z,98425.91
2022-07-31T04:02:07.803Z,98427.16
2022-07-31T04:04:37.124Z,98420.50
2022-07-31T04:07:04.687Z,98424.50
2022-07-31T04:09:31.449Z,98421.34
2022-07-31T04:11:57.998Z,98415.31
2022-07-31T04:14:24.544Z,98426.31
2022-07-31T04:16:51.091Z,98425.28
2022-07-31T04:19:17.704Z,98432.50
2022-07-31T04:21:44.205Z,98438.13
2022-07-31T04:24:11.602Z,98433.09
2022-07-31T04:26:38.117Z,98443.19
2022-07-31T04:29:04.730Z,98435.59
2022-07-31T04:31:31.232Z,98431.34
2022-07-31T04:33:57.736Z,98428.34
2022-07-31T04:36:29.779Z,98435.28
2022-07-31T04:38:57.848Z,98426.53
2022-07-31T04:41:24.646Z,98421.81
2022-07-31T04:43:51.126Z,98418.59
2022-07-31T04:46:18.084Z,98421.28
2022-07-31T04:48:44.996Z,98422.50
2022-07-31T04:51:21.908Z,98436.13
2022-07-31T04:53:48.504Z,98442.16
2022-07-31T04:56:33.353Z,98431.34
2022-07-31T04:59:00.971Z,98431.25
2022-07-31T05:01:27.549Z,98435.97
2022-07-31T05:03:54.371Z,98430.28
2022-07-31T05:06:20.898Z,98427.84
2022-07-31T05:08:47.388Z,98429.59
2022-07-31T05:11:23.118Z,98433.94
2022-07-31T05:13:51.182Z,98438.34
2022-07-31T05:16:18.571Z,98430.47
2022-07-31T05:18:45.397Z,98422.66
2022-07-31T05:21:12.788Z,98424.06
2022-07-31T05:23:43.438Z,98420.63
2022-07-31T05:26:09.978Z,98410.28
2022-07-31T05:28:37.150Z,98416.75
2022-07-31T05:31:04.221Z,98411.94
2022-07-31T05:33:30.739Z,98415.53
2022-07-31T05:35:57.509Z,98415.13
2022-07-31T05:38:24.153Z,98416.31
2022-07-31T05:40:50.664Z,98415.84
2022-07-31T05:43:17.161Z,98419.88
2022-07-31T05:45:43.935Z,98427.94
2022-07-31T05:48:10.664Z,98419.41
2022-07-31T05:50:37.219Z,98421.81
2022-07-31T05:53:03.698Z,98417.38
2022-07-31T05:55:30.192Z,98417.75
2022-07-31T05:57:56.686Z,98419.72
2022-07-31T06:00:23.296Z,98416.59
2022-07-31T06:02:51.391Z,98409.38
2022-07-31T06:05:17.924Z,98413.41
2022-07-31T06:07:51.859Z,98416.63
2022-07-31T06:10:18.737Z,98420.66
2022-07-31T06:12:47.502Z,98424.28
2022-07-31T06:15:13.982Z,98425.06
2022-07-31T06:17:44.436Z,98423.84
2022-07-31T06:20:11.756Z,98431.88
2022-07-31T06:22:43.670Z,98424.66
2022-07-31T06:25:10.361Z,98426.66
2022-07-31T06:27:38.123Z,98421.84
2022-07-31T06:30:08.048Z,98420.25
2022-07-31T06:32:34.599Z,98426.31
2022-07-31T06:35:01.153Z,98423.09
2022-07-31T06:37:27.644Z,98426.31
2022-07-31T06:39:55.790Z,98430.72
2022-07-31T06:42:23.455Z,98417.47
2022-07-31T06:44:50.165Z,98426.31
2022-07-31T06:47:17.510Z,98419.03
2022-07-31T06:49:44.118Z,98418.63
2022-07-31T06:52:10.845Z,98413.06
2022-07-31T06:54:37.322Z,98410.97
2022-07-31T06:57:04.211Z,98414.06
2022-07-31T06:59:39.669Z,98416.28
2022-07-31T07:02:07.398Z,98413.13
2022-07-31T07:05:05.164Z,98415.25
2022-07-31T07:07:20.711Z,98409.84
2022-07-31T07:09:47.482Z,98415.03
2022-07-31T07:12:16.924Z,98415.03
2022-07-31T07:14:44.070Z,98413.28
2022-07-31T07:17:10.562Z,98406.38
2022-07-31T07:19:39.895Z,98407.09
2022-07-31T07:22:06.750Z,98409.47
2022-07-31T07:24:36.278Z,98404.22
2022-07-31T07:27:02.778Z,98401.69
2022-07-31T07:29:29.315Z,98398.94
2022-07-31T07:31:55.828Z,98406.13
2022-07-31T07:34:22.402Z,98406.81
2022-07-31T07:36:48.905Z,98406.41
2022-07-31T07:39:15.391Z,98396.16
2022-07-31T07:41:41.891Z,98390.13
2022-07-31T07:44:08.451Z,98396.41
2022-07-31T07:46:37.825Z,98398.41
2022-07-31T07:49:04.532Z,98402.19
2022-07-31T07:51:31.076Z,98398.78
2022-07-31T07:53:57.570Z,98399.41
2022-07-31T07:56:24.567Z,98405.66
2022-07-31T07:58:51.084Z,98407.28
2022-07-31T08:01:18.010Z,98399.22
2022-07-31T08:03:49.687Z,98395.13
2022-07-31T08:06:18.935Z,98389.44
2022-07-31T08:08:45.432Z,98388.13
2022-07-31T08:11:17.331Z,98389.34
2022-07-31T08:13:49.787Z,98396.50
2022-07-31T08:16:16.919Z,98398.78
2022-07-31T08:18:43.519Z,98395.16
2022-07-31T08:21:10.081Z,98395.91
2022-07-31T08:23:36.943Z,98389.47
2022-07-31T08:26:04.595Z,98380.81
2022-07-31T08:28:33.197Z,98391.56
2022-07-31T08:31:00.139Z,98389.41
2022-07-31T08:33:26.648Z,98385.75
2022-07-31T08:35:53.195Z,98392.66
2022-07-31T08:38:20.410Z,98389.09
2022-07-31T08:40:46.962Z,98388.13
2022-07-31T08:44:01.862Z,98379.78
2022-07-31T08:46:02.810Z,98378.91
2022-07-31T08:48:31.709Z,98376.44
2022-07-31T08:50:58.393Z,98375.53
2022-07-31T08:53:24.898Z,98365.53
2022-07-31T08:55:55.926Z,98372.88
2022-07-31T08:58:24.623Z,98370.13
2022-07-31T09:00:51.442Z,98371.84
2022-07-31T09:03:18.022Z,98374.44
2022-07-31T09:05:44.579Z,98371.81
2022-07-31T09:08:14.640Z,98365.94
2022-07-31T09:10:45.057Z,98370.81
2022-07-31T09:13:18.842Z,98369.78
2022-07-31T09:15:45.406Z,98365.97
2022-07-31T09:18:21.998Z,98362.16
2022-07-31T09:20:59.842Z,98358.34
2022-07-31T09:23:26.789Z,98352.13
2022-07-31T09:25:58.683Z,98352.59
2022-07-31T09:28:38.670Z,98349.63
2022-07-31T09:31:05.388Z,98352.31
2022-07-31T09:33:32.402Z,98346.00
2022-07-31T09:35:59.712Z,98344.31
2022-07-31T09:38:31.356Z,98347.34
2022-07-31T09:41:53.512Z,98344.34
2022-07-31T09:44:09.583Z,98348.31
2022-07-31T09:46:44.748Z,98353.72
2022-07-31T09:49:11.460Z,98341.38
2022-07-31T09:51:41.962Z,98342.47
2022-07-31T09:54:09.128Z,98334.56
2022-07-31T09:56:35.716Z,98339.41
2022-07-31T09:59:02.251Z,98326.28
2022-07-31T10:01:28.832Z,98324.44
2022-07-31T10:03:56.777Z,98330.09
2022-07-31T10:06:23.296Z,98328.34
2022-07-31T10:08:49.830Z,98335.88
2022-07-31T10:11:19.617Z,98319.72
2022-07-31T10:13:46.788Z,98323.22
2022-07-31T10:16:14.108Z,98323.09
2022-07-31T10:18:44.655Z,98316.19
2022-07-31T10:21:11.363Z,98317.44
2022-07-31T10:23:41.711Z,98330.44
2022-07-31T10:26:08.247Z,98314.84
2022-07-31T10:28:37.049Z,98317.22
2022-07-31T10:31:03.597Z,98316.69
2022-07-31T10:33:45.465Z,98318.97
2022-07-31T10:36:18.478Z,98302.09
2022-07-31T10:38:52.103Z,98302.25
2022-07-31T10:41:42.398Z,98302.81
2022-07-31T10:44:15.909Z,98300.50
2022-07-31T10:46:42.423Z,98293.47
2022-07-31T10:49:09.178Z,98294.00
2022-07-31T10:51:46.460Z,98300.50
2022-07-31T10:54:14.155Z,98288.84
2022-07-31T10:56:43.345Z,98292.28
2022-07-31T10:59:12.158Z,98285.09
2022-07-31T11:01:52.598Z,98295.31
2022-07-31T11:04:32.354Z,98285.97
2022-07-31T11:06:59.140Z,98276.81
2022-07-31T11:09:26.910Z,98275.19
2022-07-31T11:11:53.550Z,98273.03
2022-07-31T11:14:31.665Z,98284.09
2022-07-31T11:16:58.160Z,98275.31
2022-07-31T11:19:25.453Z,98282.00
2022-07-31T11:21:54.490Z,98286.56
2022-07-31T11:24:22.732Z,98276.00
2022-07-31T11:26:53.230Z,98272.34
2022-07-31T11:30:00.450Z,98266.00
2022-07-31T11:32:25.343Z,98264.06
2022-07-31T11:34:54.002Z,98266.88
2022-07-31T11:37:37.511Z,98273.16
2022-07-31T11:40:14.925Z,98260.75
2022-07-31T11:45:54.914Z,98257.34
2022-07-31T11:48:21.801Z,98255.75
2022-07-31T11:50:49.639Z,98257.47
2022-07-31T11:53:16.826Z,98246.53
2022-07-31T11:55:50.984Z,98243.06
2022-07-31T11:58:19.238Z,98240.50
2022-07-31T12:00:50.213Z,98237.44
2022-07-31T12:03:17.984Z,98243.88
2022-07-31T12:05:48.701Z,98239.25
2022-07-31T12:08:15.304Z,98237.84
2022-07-31T12:10:42.005Z,98234.00
2022-07-31T12:13:16.394Z,98238.56
2022-07-31T12:15:55.761Z,98232.53
2022-07-31T12:18:22.364Z,98224.41
2022-07-31T12:20:55.741Z,98229.16
2022-07-31T12:23:40.295Z,98226.06
2022-07-31T12:26:08.379Z,98220.28
2022-07-31T12:28:34.866Z,98225.19
2022-07-31T12:31:01.381Z,98217.03
2022-07-31T12:33:27.885Z,98213.84
2022-07-31T12:35:57.025Z,98210.72
2022-07-31T12:38:40.803Z,98208.56
2022-07-31T12:41:11.666Z,98203.44
2022-07-31T12:43:38.247Z,98199.16
2022-07-31T12:46:07.619Z,98198.31
2022-07-31T12:48:39.304Z,98208.94
2022-07-31T12:51:07.683Z,98195.13
2022-07-31T12:53:34.191Z,98194.41
2022-07-31T12:56:00.703Z,98190.16
2022-07-31T12:58:27.193Z,98190.31
2022-07-31T13:00:54.835Z,98197.34
2022-07-31T13:03:21.404Z,98189.09
2022-07-31T13:05:51.902Z,98187.16
2022-07-31T13:08:18.693Z,98189.22
2022-07-31T13:10:46.100Z,98195.41
2022-07-31T13:13:12.609Z,98196.47
2022-07-31T13:15:39.280Z,98193.91
2022-07-31T13:18:05.902Z,98190.22
2022-07-31T13:20:32.528Z,98190.44
2022-07-31T13:23:02.775Z,98183.13
2022-07-31T13:25:30.634Z,98185.09
2022-07-31T13:27:57.881Z,98179.63
2022-07-31T13:30:24.408Z,98185.91
2022-07-31T13:32:50.989Z,98182.00
2022-07-31T13:35:27.264Z,98177.69
2022-07-31T13:37:54.720Z,98180.78
2022-07-31T13:40:41.232Z,98184.28
2022-07-31T13:43:07.737Z,98171.66
2022-07-31T13:45:34.248Z,98184.41
2022-07-31T13:48:03.351Z,98179.41
2022-07-31T13:50:33.554Z,98173.50
2022-07-31T13:53:00.056Z,98174.41
2022-07-31T13:55:26.645Z,98170.06
2022-07-31T13:57:55.336Z,98173.94
2022-07-31T14:00:26.535Z,98166.91
2022-07-31T14:02:53.066Z,98176.69
2022-07-31T14:05:19.581Z,98171.09
2022-07-31T14:07:51.724Z,98167.72
2022-07-31T14:10:20.580Z,98166.91
2022-07-31T14:12:47.915Z,98171.94
2022-07-31T14:15:14.456Z,98179.38
2022-07-31T14:17:40.986Z,98179.69
2022-07-31T14:20:07.998Z,98181.28
2022-07-31T14:22:34.511Z,98191.31
2022-07-31T14:25:01.086Z,98191.69
2022-07-31T14:27:27.637Z,98193.84
2022-07-31T14:29:54.533Z,98197.53
2022-07-31T14:32:22.182Z,98194.34
2022-07-31T14:34:49.713Z,98192.81
2022-07-31T14:37:16.276Z,98198.22
2022-07-31T14:39:43.252Z,98200.69
2022-07-31T14:42:09.992Z,98191.84
2022-07-31T14:44:38.200Z,98198.47
2022-07-31T14:47:05.127Z,98186.09
2022-07-31T14:50:09.152Z,98188.31
2022-07-31T14:52:18.442Z,98185.34
2022-07-31T14:54:44.938Z,98183.91
2022-07-31T14:57:11.522Z,98178.56
2022-07-31T14:59:38.031Z,98180.06
2022-07-31T15:02:04.675Z,98181.28
2022-07-31T15:04:31.216Z,98175.59
2022-07-31T15:07:13.042Z,98182.06
2022-07-31T15:09:44.348Z,98179.91
2022-07-31T15:12:13.338Z,98179.84
2022-07-31T15:14:39.851Z,98185.78
2022-07-31T15:17:06.630Z,98184.91
2022-07-31T15:19:33.364Z,98183.25
2022-07-31T15:22:16.494Z,98177.13
2022-07-31T15:24:49.614Z,98186.16
2022-07-31T15:27:17.902Z,98186.88
2022-07-31T15:30:00.440Z,98184.63
2022-07-31T15:32:30.928Z,98180.47
2022-07-31T15:34:57.449Z,98174.59
2022-07-31T15:37:23.980Z,98170.03
2022-07-31T15:40:03.000Z,98174.97
2022-07-31T15:42:34.096Z,98177.66
2022-07-31T15:45:00.620Z,98180.22
2022-07-31T15:47:27.108Z,98175.25
2022-07-31T15:49:53.610Z,98169.97
2022-07-31T15:52:20.152Z,98179.75
2022-07-31T15:54:47.064Z,98184.56
2022-07-31T15:57:13.741Z,98182.50
2022-07-31T15:59:41.346Z,98172.84
2022-07-31T16:02:07.922Z,98173.16
2022-07-31T16:04:36.627Z,98177.09
2022-07-31T16:08:30.767Z,98171.50
2022-07-31T16:10:14.711Z,98163.09
2022-07-31T16:12:46.585Z,98156.25
2022-07-31T16:15:13.355Z,98159.31
2022-07-31T16:17:40.326Z,98158.38
2022-07-31T16:20:08.803Z,98152.59
2022-07-31T16:22:39.175Z,98145.88
2022-07-31T16:25:06.403Z,98145.03
2022-07-31T16:27:33.002Z,98137.34
2022-07-31T16:30:01.979Z,98143.50
2022-07-31T16:32:29.290Z,98139.91
2022-07-31T16:34:59.963Z,98133.06
2022-07-31T16:37:51.234Z,98119.59
2022-07-31T16:40:28.958Z,98121.28
2022-07-31T16:43:48.147Z,98123.56
2022-07-31T16:45:51.654Z,98122.25
2022-07-31T16:48:18.326Z,98112.00
2022-07-31T16:50:44.885Z,98110.75
2022-07-31T16:53:34.686Z,98100.81
2022-07-31T16:56:01.884Z,98091.38
2022-07-31T16:58:28.807Z,98103.50
2022-07-31T17:00:55.437Z,98085.88
2022-07-31T17:03:59.204Z,98091.97
2022-07-31T17:06:10.290Z,98086.72
2022-07-31T17:08:38.102Z,98087.41
2022-07-31T17:11:04.661Z,98086.44
2022-07-31T17:13:31.238Z,98088.91
2022-07-31T17:15:57.763Z,98077.25
2022-07-31T17:18:25.337Z,98082.06
2022-07-31T17:20:53.274Z,98077.91
2022-07-31T17:23:43.079Z,98075.13
2022-07-31T17:26:09.514Z,98075.06
2022-07-31T17:28:47.186Z,98071.50
2022-07-31T17:31:13.711Z,98062.50
2022-07-31T17:33:58.345Z,98069.38
2022-07-31T17:36:26.883Z,98056.69
2022-07-31T17:38:53.422Z,98064.84
2022-07-31T17:41:24.794Z,98068.44
2022-07-31T17:43:55.496Z,98069.72
2022-07-31T17:46:28.199Z,98065.34
2022-07-31T17:49:03.601Z,98052.78
2022-07-31T17:51:30.134Z,98057.53
2022-07-31T17:53:59.601Z,98056.94
2022-07-31T17:56:26.663Z,98063.34
2022-07-31T17:58:53.365Z,98063.97
2022-07-31T18:01:20.016Z,98066.09
2022-07-31T18:03:47.033Z,98064.34
2022-07-31T18:06:13.557Z,98063.38
2022-07-31T18:08:40.055Z,98068.72
2022-07-31T18:11:08.190Z,98073.75
2022-07-31T18:13:47.765Z,98075.78
2022-07-31T18:16:14.942Z,98072.50
2022-07-31T18:18:41.434Z,98077.22
2022-07-31T18:21:07.957Z,98072.31
2022-07-31T18:23:34.449Z,98075.25
2022-07-31T18:26:01.023Z,98069.56
2022-07-31T18:28:27.524Z,98066.53
2022-07-31T18:30:54.053Z,98061.03
2022-07-31T18:33:20.704Z,98061.03
2022-07-31T18:35:47.370Z,98058.75
2022-07-31T18:38:13.875Z,98056.13
2022-07-31T18:40:40.449Z,98068.50
2022-07-31T18:43:07.206Z,98069.75
2022-07-31T18:45:34.080Z,98062.38
2022-07-31T18:48:00.874Z,98068.72
2022-07-31T18:50:58.188Z,98064.78
2022-07-31T18:53:14.816Z,98068.94
2022-07-31T18:55:41.431Z,98076.66
2022-07-31T18:58:08.088Z,98075.78
2022-07-31T19:00:34.633Z,98078.94
2022-07-31T19:03:01.445Z,98092.50
2022-07-31T19:05:28.207Z,98083.63
2022-07-31T19:07:54.848Z,98093.88
2022-07-31T19:10:30.923Z,98093.22
2022-07-31T19:12:58.687Z,98103.56
2022-07-31T19:15:25.273Z,98101.91
2022-07-31T19:17:51.749Z,98115.66
2022-07-31T19:20:51.740Z,98110.91
2022-07-31T19:23:12.394Z,98099.41
2022-07-31T19:26:02.561Z,98114.25
2022-07-31T19:28:27.220Z,98114.66
2022-07-31T19:30:54.059Z,98108.69
2022-07-31T19:33:20.571Z,98109.81
2022-07-31T19:35:55.353Z,98122.31
2022-07-31T19:38:27.202Z,98119.41
2022-07-31T19:40:53.776Z,98116.63
2022-07-31T19:43:20.561Z,98123.09
2022-07-31T19:46:10.574Z,98129.88
2022-07-31T19:48:33.859Z,98121.47
2022-07-31T19:51:00.363Z,98132.75
2022-07-31T19:53:27.153Z,98135.25
2022-07-31T19:55:53.663Z,98131.19
2022-07-31T19:58:21.240Z,98122.03
2022-07-31T20:00:47.755Z,98132.13
2022-07-31T20:03:14.327Z,98132.44
2022-07-31T20:05:41.098Z,98133.69
2022-07-31T20:08:07.802Z,98142.13
2022-07-31T20:10:34.310Z,98134.22
2022-07-31T20:13:00.894Z,98138.94
2022-07-31T20:15:50.545Z,98135.72
2022-07-31T20:18:23.257Z,98133.31
2022-07-31T20:20:58.031Z,98134.09
2022-07-31T20:23:27.644Z,98124.06
2022-07-31T20:25:54.271Z,98131.69
2022-07-31T20:28:20.876Z,98125.66
2022-07-31T20:30:47.383Z,98135.28
2022-07-31T20:33:13.883Z,98131.25
2022-07-31T20:35:49.037Z,98123.56
2022-07-31T20:38:17.812Z,98127.16
2022-07-31T20:40:48.181Z,98123.09
2022-07-31T20:43:25.739Z,98113.56
2022-07-31T20:45:52.570Z,98119.88
2022-07-31T20:48:20.951Z,98121.13
2022-07-31T20:50:48.109Z,98112.75
2022-07-31T20:53:15.405Z,98115.03
2022-07-31T20:55:42.045Z,98112.59
2022-07-31T20:58:08.573Z,98109.47
2022-07-31T21:00:38.139Z,98109.97
2022-07-31T21:03:05.753Z,98105.47
2022-07-31T21:05:32.255Z,98110.75
2022-07-31T21:07:58.788Z,98108.63
2022-07-31T21:10:28.145Z,98109.59
2022-07-31T21:12:56.015Z,98113.31
2022-07-31T21:15:40.872Z,98115.63
2022-07-31T21:18:09.535Z,98109.75
2022-07-31T21:20:50.668Z,98104.63
2022-07-31T21:23:19.461Z,98109.44
2022-07-31T21:25:46.164Z,98114.59
2022-07-31T21:28:12.807Z,98102.25
2022-07-31T21:30:39.476Z,98107.47
2022-07-31T21:33:09.557Z,98099.50
2022-07-31T21:35:37.186Z,98105.06
2022-07-31T21:38:04.408Z,98111.50
2022-07-31T21:40:31.565Z,98103.53
2022-07-31T21:42:58.312Z,98106.75
2022-07-31T21:45:25.150Z,98106.34
2022-07-31T21:47:55.571Z,98105.88
2022-07-31T21:50:28.680Z,98112.69
2022-07-31T21:52:55.964Z,98115.50
2022-07-31T21:55:22.472Z,98117.13
2022-07-31T21:57:59.625Z,98121.13
2022-07-31T22:00:28.317Z,98114.72
2022-07-31T22:02:56.437Z,98121.59
2022-07-31T22:05:41.598Z,98117.91
2022-07-31T22:08:08.125Z,98123.22
2022-07-31T22:10:34.789Z,98120.72
2022-07-31T22:13:01.317Z,98125.22
2022-07-31T22:15:50.528Z,98125.22
2022-07-31T22:18:14.540Z,98130.00
2022-07-31T22:20:41.157Z,98127.59
2022-07-31T22:23:07.698Z,98126.03
2022-07-31T22:25:34.339Z,98120.00
2022-07-31T22:28:04.196Z,98126.81
2022-07-31T22:30:31.345Z,98122.44
2022-07-31T22:33:01.279Z,98132.47
2022-07-31T22:35:28.222Z,98129.63
2022-07-31T22:37:54.741Z,98131.28
2022-07-31T22:40:21.698Z,98122.00
2022-07-31T22:42:57.524Z,98128.53
2022-07-31T22:45:24.802Z,98123.75
2022-07-31T22:47:51.562Z,98131.78
2022-07-31T22:50:18.134Z,98133.38
2022-07-31T22:52:44.693Z,98132.97
2022-07-31T22:55:11.615Z,98131.38
2022-07-31T22:57:40.720Z,98132.94
2022-07-31T23:00:08.231Z,98132.09
2022-07-31T23:02:34.829Z,98140.97
2022-07-31T23:05:01.333Z,98136.56
2022-07-31T23:07:27.874Z,98137.38
2022-07-31T23:09:54.401Z,98139.81
2022-07-31T23:12:20.895Z,98141.38
2022-07-31T23:14:47.383Z,98135.00
2022-07-31T23:17:23.314Z,98131.75
2022-07-31T23:19:54.004Z,98137.34
2022-07-31T23:22:33.850Z,98138.97
2022-07-31T23:25:10.099Z,98138.59
2022-07-31T23:27:36.618Z,98143.81
2022-07-31T23:30:03.188Z,98142.25
2022-07-31T23:32:29.742Z,98132.22
2022-07-31T23:34:56.318Z,98136.66
2022-07-31T23:37:22.833Z,98132.59
2022-07-31T23:39:49.330Z,98131.38
2022-07-31T23:42:34.439Z,98126.56
2022-07-31T23:45:00.997Z,98125.75
2022-07-31T23:47:44.662Z,98129.28
2022-07-31T23:50:11.875Z,98120.50
2022-07-31T23:52:38.395Z,98120.13
2022-07-31T23:55:05.150Z,98120.59
2022-07-31T23:57:34.623Z,98118.19
